createdAt,value
2018-01-29T00:00:09.137Z,50.88
2018-01-29T00:02:34.922Z,50.75
2018-01-29T00:05:00.688Z,50.37
2018-01-29T00:07:26.473Z,50.35
2018-01-29T00:09:52.242Z,50.90
2018-01-29T00:12:18.017Z,50.54
2018-01-29T00:14:43.789Z,51.52
2018-01-29T00:17:09.563Z,51.20
2018-01-29T00:19:36.321Z,51.07
2018-01-29T00:22:02.190Z,50.76
2018-01-29T00:24:27.973Z,51.13
2018-01-29T00:26:53.745Z,51.10
2018-01-29T00:29:19.522Z,51.79
2018-01-29T00:31:45.357Z,50.98
2018-01-29T00:34:11.142Z,50.65
2018-01-29T00:36:36.913Z,51.18
2018-01-29T00:39:02.745Z,51.05
2018-01-29T00:41:28.802Z,51.63
2018-01-29T00:43:54.572Z,51.62
2018-01-29T00:46:20.340Z,51.09
2018-01-29T00:48:46.121Z,51.79
2018-01-29T00:51:11.894Z,51.88
2018-01-29T00:53:37.669Z,50.81
2018-01-29T00:56:03.462Z,50.45
2018-01-29T00:58:29.246Z,50.03
2018-01-29T01:00:55.026Z,49.87
2018-01-29T01:03:20.804Z,50.07
2018-01-29T01:05:46.696Z,50.68
2018-01-29T01:08:12.470Z,50.09
2018-01-29T01:10:38.246Z,50.05
2018-01-29T01:13:04.065Z,50.09
2018-01-29T01:15:29.845Z,50.33
2018-01-29T01:17:55.806Z,50.21
2018-01-29T01:20:21.580Z,50.08
2018-01-29T01:22:47.358Z,50.75
2018-01-29T01:25:13.194Z,51.01
2018-01-29T01:27:39.001Z,50.57
2018-01-29T01:30:04.918Z,50.31
2018-01-29T01:32:30.697Z,51.41
2018-01-29T01:34:56.473Z,50.48
2018-01-29T01:37:22.288Z,50.46
2018-01-29T01:39:48.198Z,50.66
2018-01-29T01:42:14.037Z,51.50
2018-01-29T01:44:39.805Z,50.91
2018-01-29T01:47:05.618Z,50.81
2018-01-29T01:49:31.873Z,50.92
2018-01-29T01:51:57.686Z,51.07
2018-01-29T01:54:23.465Z,50.92
2018-01-29T01:56:49.281Z,50.63
2018-01-29T01:59:15.101Z,50.63
2018-01-29T02:01:41.021Z,51.02
2018-01-29T02:04:07.782Z,50.79
2018-01-29T02:06:34.517Z,50.98
2018-01-29T02:09:00.285Z,51.01
2018-01-29T02:11:26.109Z,51.34
2018-01-29T02:13:52.765Z,51.62
2018-01-29T02:16:18.525Z,51.06
2018-01-29T02:18:44.289Z,51.21
2018-01-29T02:21:10.146Z,50.85
2018-01-29T02:23:36.797Z,50.98
2018-01-29T02:26:02.605Z,50.96
2018-01-29T02:28:28.373Z,50.80
2018-01-29T02:30:55.050Z,51.10
2018-01-29T02:33:20.820Z,51.26
2018-01-29T02:35:46.594Z,51.53
2018-01-29T02:38:12.364Z,51.39
2018-01-29T02:40:38.223Z,51.34
2018-01-29T02:43:03.973Z,51.54
2018-01-29T02:45:29.769Z,51.57
2018-01-29T02:47:55.541Z,52.02
2018-01-29T02:50:22.189Z,51.78
2018-01-29T02:52:49.116Z,51.84
2018-01-29T02:55:15.980Z,51.41
2018-01-29T02:57:42.616Z,51.87
2018-01-29T03:00:08.441Z,52.17
2018-01-29T03:02:34.262Z,51.35
2018-01-29T03:05:00.938Z,51.07
2018-01-29T03:07:26.714Z,50.74
2018-01-29T03:09:52.480Z,50.61
2018-01-29T03:12:19.277Z,50.63
2018-01-29T03:14:46.233Z,51.02
2018-01-29T03:17:12.017Z,50.89
2018-01-29T03:19:38.729Z,50.96
2018-01-29T03:22:04.496Z,50.61
2018-01-29T03:24:30.265Z,50.66
2018-01-29T03:26:56.038Z,51.12
2018-01-29T03:29:21.808Z,50.91
2018-01-29T03:31:48.469Z,51.31
2018-01-29T03:34:14.241Z,51.34
2018-01-29T03:36:40.041Z,51.04
2018-01-29T03:39:05.800Z,50.98
2018-01-29T03:41:31.576Z,50.92
2018-01-29T03:43:58.193Z,50.60
2018-01-29T03:46:23.969Z,50.84
2018-01-29T03:48:49.741Z,50.72
2018-01-29T03:51:15.509Z,51.12
2018-01-29T03:53:41.301Z,51.15
2018-01-29T03:56:07.073Z,50.91
2018-01-29T03:58:32.848Z,50.95
2018-01-29T04:00:58.786Z,50.71
2018-01-29T04:03:24.561Z,50.82
2018-01-29T04:05:50.334Z,50.65
2018-01-29T04:08:16.102Z,50.89
2018-01-29T04:10:41.875Z,51.06
2018-01-29T04:13:08.477Z,51.37
2018-01-29T04:15:34.249Z,51.23
2018-01-29T04:18:00.024Z,51.63
2018-01-29T04:20:25.797Z,51.57
2018-01-29T04:22:51.571Z,51.04
2018-01-29T04:25:17.368Z,51.28
2018-01-29T04:27:43.165Z,51.27
2018-01-29T04:30:08.929Z,51.33
2018-01-29T04:32:34.768Z,51.13
2018-01-29T04:35:00.574Z,51.37
2018-01-29T04:37:26.380Z,51.20
2018-01-29T04:39:53.016Z,51.70
2018-01-29T04:42:18.823Z,51.44
2018-01-29T04:44:45.597Z,51.26
2018-01-29T04:47:12.428Z,51.15
2018-01-29T04:49:38.197Z,51.04
2018-01-29T04:52:03.969Z,51.19
2018-01-29T04:54:29.736Z,50.87
2018-01-29T04:56:56.304Z,51.10
2018-01-29T04:59:22.121Z,51.17
2018-01-29T05:01:47.884Z,50.96
2018-01-29T05:04:14.629Z,50.78
2018-01-29T05:06:41.180Z,51.13
2018-01-29T05:09:06.996Z,51.10
2018-01-29T05:11:33.753Z,51.53
2018-01-29T05:13:59.525Z,51.12
2018-01-29T05:16:25.336Z,51.09
2018-01-29T05:18:51.901Z,51.16
2018-01-29T05:21:17.732Z,50.49
2018-01-29T05:23:44.309Z,50.73
2018-01-29T05:26:10.084Z,50.33
2018-01-29T05:28:35.872Z,50.30
2018-01-29T05:31:02.622Z,50.71
2018-01-29T05:33:29.397Z,50.40
2018-01-29T05:36:01.297Z,50.32
2018-01-29T05:38:27.093Z,50.39
2018-01-29T05:40:52.860Z,50.31
2018-01-29T05:43:18.633Z,50.32
2018-01-29T05:45:45.424Z,50.81
2018-01-29T05:48:12.195Z,50.92
2018-01-29T05:50:37.977Z,50.60
2018-01-29T05:53:03.941Z,51.75
2018-01-29T05:55:29.716Z,51.01
2018-01-29T05:57:55.555Z,50.84
2018-01-29T06:00:21.319Z,50.79
2018-01-29T06:02:47.081Z,51.15
2018-01-29T06:05:13.785Z,51.70
2018-01-29T06:07:39.556Z,51.18
2018-01-29T06:10:06.250Z,51.57
2018-01-29T06:12:32.945Z,51.38
2018-01-29T06:14:59.764Z,51.94
2018-01-29T06:17:25.541Z,52.08
2018-01-29T06:19:51.314Z,51.53
2018-01-29T06:22:17.093Z,51.16
2018-01-29T06:24:43.649Z,51.27
2018-01-29T06:27:10.372Z,51.66
2018-01-29T06:29:37.050Z,51.46
2018-01-29T06:32:03.776Z,51.59
2018-01-29T06:34:29.544Z,52.17
2018-01-29T06:36:55.313Z,52.58
2018-01-29T06:39:21.277Z,52.07
2018-01-29T06:41:47.049Z,51.63
2018-01-29T06:44:13.786Z,52.16
2018-01-29T06:46:40.473Z,51.87
2018-01-29T06:49:07.185Z,51.55
2018-01-29T06:51:32.954Z,50.78
2018-01-29T06:53:58.732Z,50.93
2018-01-29T06:56:25.372Z,50.77
2018-01-29T06:58:52.054Z,50.69
2018-01-29T07:01:17.826Z,50.76
2018-01-29T07:03:43.609Z,50.99
2018-01-29T07:06:09.416Z,50.67
2018-01-29T07:08:36.021Z,51.36
2018-01-29T07:11:01.845Z,51.27
2018-01-29T07:13:27.641Z,50.81
2018-01-29T07:15:53.413Z,51.88
2018-01-29T07:18:19.980Z,52.09
2018-01-29T07:20:45.753Z,51.72
2018-01-29T07:23:11.557Z,52.01
2018-01-29T07:25:37.324Z,51.29
2018-01-29T07:28:03.141Z,51.92
2018-01-29T07:30:28.937Z,51.67
2018-01-29T07:32:54.718Z,51.04
2018-01-29T07:35:20.636Z,51.49
2018-01-29T07:37:46.414Z,51.66
2018-01-29T07:40:12.214Z,52.09
2018-01-29T07:42:37.994Z,51.70
2018-01-29T07:45:03.791Z,51.47
2018-01-29T07:47:29.649Z,51.75
2018-01-29T07:49:55.429Z,51.07
2018-01-29T07:52:21.209Z,51.23
2018-01-29T07:54:46.986Z,51.87
2018-01-29T07:57:12.837Z,51.20
2018-01-29T07:59:38.624Z,51.64
2018-01-29T08:02:04.402Z,51.30
2018-01-29T08:04:30.189Z,50.96
2018-01-29T08:06:55.974Z,51.12
2018-01-29T08:09:22.642Z,50.64
2018-01-29T08:11:49.413Z,50.89
2018-01-29T08:14:15.244Z,51.11
2018-01-29T08:16:41.245Z,51.36
2018-01-29T08:19:07.121Z,51.08
2018-01-29T08:21:33.026Z,51.83
2018-01-29T08:23:58.828Z,51.84
2018-01-29T08:26:25.469Z,51.44
2018-01-29T08:28:51.570Z,51.40
2018-01-29T08:31:17.570Z,51.20
2018-01-29T08:33:43.393Z,51.22
2018-01-29T08:36:09.177Z,51.13
2018-01-29T08:38:34.957Z,50.52
2018-01-29T08:41:00.743Z,50.83
2018-01-29T08:43:26.573Z,50.40
2018-01-29T08:45:53.253Z,50.52
2018-01-29T08:48:19.042Z,50.71
2018-01-29T08:50:44.893Z,50.65
2018-01-29T08:53:10.676Z,50.91
2018-01-29T08:55:36.491Z,50.58
2018-01-29T08:58:02.306Z,50.21
2018-01-29T09:00:28.161Z,50.90
2018-01-29T09:02:53.945Z,51.05
2018-01-29T09:05:19.728Z,50.73
2018-01-29T09:07:45.551Z,50.71
2018-01-29T09:10:12.186Z,50.86
2018-01-29T09:12:37.979Z,50.91
2018-01-29T09:15:03.802Z,50.68
2018-01-29T09:17:29.624Z,50.91
2018-01-29T09:19:55.411Z,50.62
2018-01-29T09:22:21.195Z,50.50
2018-01-29T09:24:46.974Z,50.77
2018-01-29T09:27:12.826Z,51.20
2018-01-29T09:29:39.008Z,50.92
2018-01-29T09:32:04.789Z,50.90
2018-01-29T09:34:30.625Z,50.60
2018-01-29T09:36:56.409Z,51.03
2018-01-29T09:39:23.040Z,50.92
2018-01-29T09:41:48.827Z,51.16
2018-01-29T09:44:14.890Z,51.05
2018-01-29T09:46:40.669Z,51.19
2018-01-29T09:49:07.458Z,51.23
2018-01-29T09:51:33.237Z,51.31
2018-01-29T09:54:00.006Z,51.47
2018-01-29T09:56:25.926Z,51.64
2018-01-29T09:58:52.538Z,51.13
2018-01-29T10:01:19.259Z,51.33
2018-01-29T10:03:46.055Z,51.41
2018-01-29T10:06:12.934Z,51.29
2018-01-29T10:08:39.578Z,51.19
2018-01-29T10:11:06.361Z,51.33
2018-01-29T10:13:32.217Z,51.19
2018-01-29T10:15:58.029Z,50.84
2018-01-29T10:18:24.649Z,50.74
2018-01-29T10:20:50.454Z,51.47
2018-01-29T10:23:16.235Z,51.41
2018-01-29T10:25:42.018Z,51.18
2018-01-29T10:28:08.753Z,51.25
2018-01-29T10:30:34.541Z,51.20
2018-01-29T10:33:00.319Z,51.08
2018-01-29T10:35:27.081Z,51.33
2018-01-29T10:37:52.865Z,51.09
2018-01-29T10:40:18.645Z,50.89
2018-01-29T10:42:44.430Z,50.73
2018-01-29T10:45:10.210Z,50.55
2018-01-29T10:47:35.996Z,50.23
2018-01-29T10:50:01.789Z,50.43
2018-01-29T10:52:28.428Z,50.56
2018-01-29T10:54:54.241Z,50.74
2018-01-29T10:57:20.076Z,50.72
2018-01-29T10:59:45.862Z,50.67
2018-01-29T11:02:11.662Z,50.71
2018-01-29T11:04:37.470Z,50.60
2018-01-29T11:07:03.246Z,50.53
2018-01-29T11:09:29.209Z,50.57
2018-01-29T11:12:08.052Z,50.67
2018-01-29T11:14:51.106Z,50.69
2018-01-29T11:17:21.415Z,50.76
2018-01-29T11:22:32.353Z,51.43
2018-01-29T11:25:00.413Z,50.98
2018-01-29T11:27:26.223Z,51.02
2018-01-29T11:29:52.025Z,50.70
2018-01-29T11:32:18.016Z,50.80
2018-01-29T11:34:43.784Z,50.45
2018-01-29T11:37:09.566Z,50.79
2018-01-29T11:39:35.353Z,50.83
2018-01-29T11:42:01.316Z,50.91
2018-01-29T11:44:27.095Z,50.75
2018-01-29T11:46:54.770Z,50.67
2018-01-29T11:49:21.042Z,50.47
2018-01-29T11:51:48.580Z,50.42
2018-01-29T11:54:15.315Z,50.18
2018-01-29T11:56:41.259Z,50.13
2018-01-29T11:59:09.705Z,49.93
2018-01-29T12:01:36.337Z,49.83
2018-01-29T12:04:03.986Z,50.05
2018-01-29T12:06:31.174Z,50.07
2018-01-29T12:08:59.316Z,50.45
2018-01-29T12:11:25.746Z,50.59
2018-01-29T12:13:53.445Z,50.47
2018-01-29T12:16:21.316Z,50.50
2018-01-29T12:18:47.842Z,50.05
2018-01-29T12:21:15.688Z,50.18
2018-01-29T12:23:43.465Z,50.48
2018-01-29T12:26:10.043Z,50.62
2018-01-29T12:28:37.051Z,50.49
2018-01-29T12:31:03.984Z,50.70
2018-01-29T12:33:30.826Z,50.89
2018-01-29T12:35:58.281Z,50.57
2018-01-29T12:38:26.747Z,50.50
2018-01-29T12:40:53.065Z,50.66
2018-01-29T12:43:21.140Z,50.53
2018-01-29T12:45:49.725Z,50.46
2018-01-29T12:48:16.724Z,50.53
2018-01-29T12:50:45.647Z,50.52
2018-01-29T12:53:14.296Z,50.58
2018-01-29T12:55:41.534Z,50.30
2018-01-29T12:58:08.735Z,50.52
2018-01-29T13:00:35.181Z,50.50
2018-01-29T13:03:01.343Z,50.48
2018-01-29T13:05:27.157Z,50.09
2018-01-29T13:07:52.979Z,50.26
2018-01-29T13:10:19.598Z,50.29
2018-01-29T13:12:45.406Z,50.00
2018-01-29T13:15:11.194Z,49.76
2018-01-29T13:17:37.034Z,49.44
2018-01-29T13:20:02.806Z,49.21
2018-01-29T13:22:28.593Z,49.14
2018-01-29T13:24:54.410Z,49.59
2018-01-29T13:27:20.191Z,49.76
2018-01-29T13:29:46.063Z,49.82
2018-01-29T13:32:12.855Z,49.91
2018-01-29T13:34:38.993Z,49.70
2018-01-29T13:37:04.814Z,49.70
2018-01-29T13:39:30.638Z,49.68
2018-01-29T13:41:57.256Z,49.65
2018-01-29T13:44:23.035Z,49.57
2018-01-29T13:46:48.810Z,49.76
2018-01-29T13:49:15.552Z,49.68
2018-01-29T13:51:42.249Z,49.82
2018-01-29T13:54:08.030Z,50.02
2018-01-29T13:56:33.988Z,50.17
2018-01-29T13:58:59.758Z,49.89
2018-01-29T14:01:26.526Z,50.07
2018-01-29T14:03:52.306Z,50.11
2018-01-29T14:06:18.938Z,49.79
2018-01-29T14:08:45.632Z,50.09
2018-01-29T14:11:11.407Z,49.97
2018-01-29T14:13:37.189Z,50.12
2018-01-29T14:16:02.973Z,50.19
2018-01-29T14:18:28.759Z,50.03
2018-01-29T14:20:54.546Z,49.91
2018-01-29T14:23:20.326Z,50.09
2018-01-29T14:25:46.136Z,50.15
2018-01-29T14:28:11.909Z,49.96
2018-01-29T14:30:38.381Z,50.32
2018-01-29T14:33:04.154Z,50.15
2018-01-29T14:35:30.860Z,50.17
2018-01-29T14:37:56.638Z,50.35
2018-01-29T14:40:22.413Z,50.30
2018-01-29T14:42:49.118Z,50.27
2018-01-29T14:45:14.937Z,50.22
2018-01-29T14:47:40.714Z,50.15
2018-01-29T14:50:06.529Z,50.18
2018-01-29T14:52:32.312Z,50.24
2018-01-29T14:54:58.285Z,50.22
2018-01-29T14:57:24.097Z,50.41
2018-01-29T14:59:50.717Z,50.27
2018-01-29T15:02:16.489Z,50.30
2018-01-29T15:04:42.317Z,50.21
2018-01-29T15:07:08.092Z,49.87
2018-01-29T15:09:33.869Z,50.02
2018-01-29T15:11:59.642Z,50.16
2018-01-29T15:14:25.430Z,50.37
2018-01-29T15:16:51.205Z,50.00
2018-01-29T15:19:17.021Z,50.12
2018-01-29T15:21:42.837Z,49.84
2018-01-29T15:24:08.621Z,49.41
2018-01-29T15:26:34.406Z,49.40
2018-01-29T15:29:00.189Z,49.72
2018-01-29T15:31:25.961Z,49.54
2018-01-29T15:33:51.737Z,49.41
2018-01-29T15:36:17.514Z,49.24
2018-01-29T15:38:43.293Z,49.49
2018-01-29T15:41:09.126Z,49.75
2018-01-29T15:43:34.906Z,49.51
2018-01-29T15:46:00.677Z,49.81
2018-01-29T15:48:26.497Z,49.42
2018-01-29T15:50:52.274Z,49.36
2018-01-29T15:53:19.030Z,49.49
2018-01-29T15:55:45.797Z,49.49
2018-01-29T15:58:11.578Z,49.57
2018-01-29T16:00:37.389Z,49.63
2018-01-29T16:03:04.042Z,49.69
2018-01-29T16:05:29.819Z,49.79
2018-01-29T16:07:56.552Z,49.69
2018-01-29T16:10:23.276Z,49.82
2018-01-29T16:12:50.115Z,50.04
2018-01-29T16:15:15.921Z,50.69
2018-01-29T16:17:41.694Z,50.51
2018-01-29T16:20:07.705Z,49.87
2018-01-29T16:22:33.625Z,50.04
2018-01-29T16:24:59.661Z,49.81
2018-01-29T16:27:25.440Z,49.66
2018-01-29T16:29:51.210Z,49.92
2018-01-29T16:32:16.982Z,49.82
2018-01-29T16:34:42.850Z,50.08
2018-01-29T16:37:08.637Z,49.76
2018-01-29T16:39:34.449Z,49.69
2018-01-29T16:42:00.316Z,49.68
2018-01-29T16:44:26.100Z,50.10
2018-01-29T16:46:52.013Z,49.96
2018-01-29T16:49:17.929Z,49.96
2018-01-29T16:51:43.747Z,50.00
2018-01-29T16:54:09.597Z,50.11
2018-01-29T16:56:35.392Z,49.92
2018-01-29T16:59:01.310Z,50.01
2018-01-29T17:01:27.145Z,50.00
2018-01-29T17:03:52.962Z,49.88
2018-01-29T17:06:18.744Z,49.96
2018-01-29T17:08:44.540Z,50.01
2018-01-29T17:11:10.405Z,50.14
2018-01-29T17:13:36.185Z,50.08
2018-01-29T17:16:01.970Z,49.83
2018-01-29T17:18:27.737Z,50.83
2018-01-29T17:20:53.513Z,50.14
2018-01-29T17:23:19.441Z,50.00
2018-01-29T17:25:46.193Z,49.43
2018-01-29T17:28:11.959Z,50.04
2018-01-29T17:30:38.541Z,49.58
2018-01-29T17:33:05.336Z,49.13
2018-01-29T17:35:31.936Z,49.11
2018-01-29T17:37:57.764Z,49.20
2018-01-29T17:40:23.537Z,49.37
2018-01-29T17:42:49.314Z,49.58
2018-01-29T17:45:15.262Z,49.56
2018-01-29T17:47:42.043Z,49.60
2018-01-29T17:50:07.821Z,49.65
2018-01-29T17:52:33.601Z,49.79
2018-01-29T17:54:59.376Z,49.81
2018-01-29T17:57:26.111Z,49.92
2018-01-29T17:59:51.951Z,49.96
2018-01-29T18:02:17.709Z,50.01
2018-01-29T18:04:43.486Z,50.02
2018-01-29T18:07:09.429Z,50.86
2018-01-29T18:09:35.212Z,50.78
2018-01-29T18:12:00.997Z,50.36
2018-01-29T18:14:26.790Z,50.27
2018-01-29T18:16:52.641Z,50.45
2018-01-29T18:19:18.424Z,50.43
2018-01-29T18:21:44.193Z,50.37
2018-01-29T18:24:09.969Z,50.32
2018-01-29T18:26:35.746Z,50.70
2018-01-29T18:29:01.525Z,50.88
2018-01-29T18:31:27.302Z,50.68
2018-01-29T18:33:53.090Z,50.44
2018-01-29T18:36:18.877Z,50.26
2018-01-29T18:38:44.697Z,50.40
2018-01-29T18:41:10.482Z,50.30
2018-01-29T18:43:36.356Z,50.23
2018-01-29T18:46:02.142Z,50.33
2018-01-29T18:48:27.932Z,50.50
2018-01-29T18:50:53.717Z,50.50
2018-01-29T18:53:19.554Z,50.43
2018-01-29T18:55:45.346Z,50.42
2018-01-29T18:58:11.123Z,50.25
2018-01-29T19:00:36.921Z,50.52
2018-01-29T19:03:02.701Z,50.87
2018-01-29T19:05:28.617Z,51.16
2018-01-29T19:07:54.393Z,50.90
2018-01-29T19:10:20.296Z,51.23
2018-01-29T19:12:46.074Z,50.93
2018-01-29T19:15:11.942Z,50.60
2018-01-29T19:17:37.733Z,50.22
2018-01-29T19:20:03.537Z,50.17
2018-01-29T19:22:29.333Z,50.40
2018-01-29T19:24:55.145Z,50.47
2018-01-29T19:27:20.918Z,50.41
2018-01-29T19:29:46.890Z,50.84
2018-01-29T19:32:12.685Z,50.60
2018-01-29T19:34:38.470Z,50.00
2018-01-29T19:37:04.257Z,50.57
2018-01-29T19:39:30.041Z,50.91
2018-01-29T19:42:02.802Z,50.75
2018-01-29T19:44:28.586Z,50.91
2018-01-29T19:46:54.434Z,51.08
2018-01-29T19:49:20.225Z,51.11
2018-01-29T19:51:46.026Z,51.37
2018-01-29T19:54:11.817Z,51.06
2018-01-29T19:56:37.605Z,50.73
2018-01-29T19:59:03.433Z,50.96
2018-01-29T20:01:29.218Z,51.25
2018-01-29T20:03:55.077Z,51.05
2018-01-29T20:06:20.875Z,51.31
2018-01-29T20:08:47.585Z,51.49
2018-01-29T20:11:14.305Z,51.01
2018-01-29T20:13:40.107Z,50.97
2018-01-29T20:16:05.900Z,51.28
2018-01-29T20:18:31.681Z,51.28
2018-01-29T20:20:57.478Z,51.29
2018-01-29T20:23:23.379Z,50.85
2018-01-29T20:25:49.170Z,51.49
2018-01-29T20:28:14.996Z,51.44
2018-01-29T20:30:40.792Z,51.52
2018-01-29T20:33:06.582Z,51.35
2018-01-29T20:35:32.426Z,51.35
2018-01-29T20:37:58.217Z,51.18
2018-01-29T20:40:23.997Z,51.20
2018-01-29T20:42:49.812Z,51.15
2018-01-29T20:45:15.603Z,51.39
2018-01-29T20:47:41.404Z,51.24
2018-01-29T20:50:07.887Z,51.43
2018-01-29T20:52:33.932Z,51.64
2018-01-29T20:54:59.721Z,51.67
2018-01-29T20:57:25.507Z,52.00
2018-01-29T20:59:51.288Z,51.86
2018-01-29T21:02:17.271Z,51.15
2018-01-29T21:04:43.054Z,51.34
2018-01-29T21:07:09.760Z,51.34
2018-01-29T21:09:35.545Z,51.31
2018-01-29T21:12:01.333Z,51.21
2018-01-29T21:14:27.127Z,51.42
2018-01-29T21:16:53.053Z,51.71
2018-01-29T21:19:18.885Z,51.38
2018-01-29T21:21:44.669Z,51.42
2018-01-29T21:24:10.494Z,51.03
2018-01-29T21:26:36.285Z,51.64
2018-01-29T21:29:02.122Z,50.89
2018-01-29T21:31:27.917Z,51.31
2018-01-29T21:33:53.741Z,51.05
2018-01-29T21:36:20.654Z,50.86
2018-01-29T21:38:46.597Z,51.50
2018-01-29T21:41:12.528Z,51.54
2018-01-29T21:43:38.474Z,51.39
2018-01-29T21:46:04.349Z,51.07
2018-01-29T21:48:30.198Z,50.40
2018-01-29T21:50:55.983Z,50.89
2018-01-29T21:53:21.976Z,51.04
2018-01-29T21:55:48.774Z,51.24
2018-01-29T21:58:14.747Z,51.07
2018-01-29T22:00:40.861Z,51.37
2018-01-29T22:03:06.809Z,51.14
2018-01-29T22:05:32.865Z,51.14
2018-01-29T22:07:58.747Z,51.12
2018-01-29T22:10:24.804Z,51.40
2018-01-29T22:12:51.541Z,50.94
2018-01-29T22:15:17.562Z,51.29
2018-01-29T22:17:43.549Z,51.27
2018-01-29T22:20:10.263Z,51.08
2018-01-29T22:22:38.336Z,51.12
2018-01-29T22:25:08.820Z,50.88
2018-01-29T22:27:35.765Z,51.17
2018-01-29T22:30:01.547Z,51.25
2018-01-29T22:32:37.883Z,51.59
2018-01-29T22:35:06.111Z,51.27
2018-01-29T22:37:31.932Z,51.18
2018-01-29T22:40:01.808Z,51.10
2018-01-29T22:42:30.360Z,51.25
2018-01-29T22:44:56.178Z,51.20
2018-01-29T22:47:23.264Z,51.26
2018-01-29T22:49:50.154Z,51.18
2018-01-29T22:52:18.261Z,50.98
2018-01-29T22:54:45.226Z,51.00
2018-01-29T22:57:12.288Z,51.21
2018-01-29T22:59:40.669Z,50.85
2018-01-29T23:02:06.529Z,50.78
2018-01-29T23:04:32.342Z,50.80
2018-01-29T23:06:58.126Z,51.10
2018-01-29T23:09:23.909Z,50.69
2018-01-29T23:11:49.692Z,50.56
2018-01-29T23:14:15.469Z,50.43
2018-01-29T23:16:41.260Z,50.20
2018-01-29T23:19:07.044Z,49.96
2018-01-29T23:21:32.826Z,50.27
2018-01-29T23:23:59.444Z,50.11
2018-01-29T23:26:25.230Z,50.25
2018-01-29T23:28:51.006Z,49.69
2018-01-29T23:31:17.505Z,50.15
2018-01-29T23:33:43.308Z,50.20
2018-01-29T23:36:09.245Z,49.95
2018-01-29T23:38:35.029Z,49.67
2018-01-29T23:41:00.809Z,49.85
2018-01-29T23:43:26.625Z,49.82
2018-01-29T23:45:53.250Z,49.61
2018-01-29T23:48:19.079Z,49.82
2018-01-29T23:50:45.853Z,49.62
2018-01-29T23:53:11.644Z,49.71
2018-01-29T23:55:37.441Z,49.71
2018-01-29T23:58:03.230Z,49.66
